Observation data for Northwest San Angelo on 06/25/2019      Previous  Date  Next       Current Mesonet Observations  Soil Data  Daily Summary Page  Observations in Plain Language
KASU 250500Z 24002KT 21/17 A2992 RMK A01 T02070173  RH  085%=      5-min Rain = 0
KASU 250505Z 06002KT 21/17 A2989 RMK A01 T02060172  RH  085%=      5-min Rain = 0
KASU 250510Z 02005KT 21/17 A2988 RMK A01 T02050170  RH  085%=      5-min Rain = 0
KASU 250515Z 01008KT 20/17 A2989 RMK A01 T02040169  RH  084%=      5-min Rain = 0
KASU 250520Z 30009G16KT 21/17 A2991 RMK A01 T02080168  RH  082%=      5-min Rain = 0
KASU 250525Z 31010G17KT 21/17 A299 RMK A01 T02110165  RH  078%=      5-min Rain = 0
KASU 250530Z 02005KT 21/16 A2989 RMK A01 T02120161  RH  076%=      5-min Rain = 0
KASU 250535Z 08004KT 21/16 A2989 RMK A01 T02100163  RH  078%=      5-min Rain = 0
KASU 250540Z 25002KT 21/17 A299 RMK A01 T02090165  RH  080%=      5-min Rain = 0
KASU 250545Z 34006KT 21/17 A2991 RMK A01 T02080165  RH  081%=      5-min Rain = 0
KASU 250550Z 33007KT 21/16 A2991 RMK A01 T02060163  RH  080%=      5-min Rain = 0
KASU 250555Z 32006KT 21/16 A2992 RMK A01 T02050164  RH  081%=      5-min Rain = 0
KASU 250600Z 30004KT 21/16 A2993 RMK A01 T02050164  RH  081%=      5-min Rain = 0
KASU 250605Z 28004KT 21/16 A2993 RMK A01 T02050164  RH  081%=      5-min Rain = 0
KASU 250610Z 32005KT 20/16 A2994 RMK A01 T02040163  RH  081%=      5-min Rain = 0
KASU 250615Z 35006KT 20/16 A2995 RMK A01 T02000161  RH  082%=      5-min Rain = 0
KASU 250620Z 32006KT 20/16 A2994 RMK A01 T01990162  RH  083%=      5-min Rain = 0
KASU 250625Z 36005KT 20/16 A2994 RMK A01 T01980161  RH  083%=      5-min Rain = 0
KASU 250630Z 01005KT 20/16 A2994 RMK A01 T01970160  RH  083%=      5-min Rain = 0
KASU 250635Z 34004KT 20/16 A2995 RMK A01 T01970159  RH  082%=      5-min Rain = 0
KASU 250640Z 01003KT 20/16 A2995 RMK A01 T01960158  RH  082%=      5-min Rain = 0
KASU 250645Z 02002KT 20/16 A2994 RMK A01 T01950157  RH  082%=      5-min Rain = 0
KASU 250650Z 34002KT 20/16 A2995 RMK A01 T01960158  RH  082%=      5-min Rain = 0
KASU 250655Z 00003KT 19/16 A2995 RMK A01 T01940156  RH  082%=      5-min Rain = 0
KASU 250700Z 35002KT 20/16 A2995 RMK A01 T01950158  RH  083%=      5-min Rain = 0
KASU 250705Z 33001KT 19/16 A2995 RMK A01 T01940158  RH  083%=      5-min Rain = 0
KASU 250710Z 18003KT 19/16 A2994 RMK A01 T01930157  RH  084%=      5-min Rain = 0
KASU 250715Z 23002KT 19/16 A2994 RMK A01 T01910158  RH  085%=      5-min Rain = 0
KASU 250720Z 06002KT 19/16 A2994 RMK A01 T01900157  RH  085%=      5-min Rain = 0
KASU 250725Z 32002KT 19/16 A2994 RMK A01 T01890157  RH  085%=      5-min Rain = 0
KASU 250730Z 34003KT 19/16 A2994 RMK A01 T01890157  RH  086%=      5-min Rain = 0
KASU 250735Z 35003KT 19/16 A2994 RMK A01 T01890158  RH  086%=      5-min Rain = 0
KASU 250740Z 34001KT 19/16 A2994 RMK A01 T01870156  RH  086%=      5-min Rain = 0
KASU 250745Z 34000KT 19/16 A2994 RMK A01 T01890158  RH  086%=      5-min Rain = 0
KASU 250750Z 23002KT 19/16 A2993 RMK A01 T01900159  RH  086%=      5-min Rain = 0
KASU 250755Z 22002KT 19/16 A2993 RMK A01 T01890159  RH  087%=      5-min Rain = 0
KASU 250800Z 26003KT 19/16 A2993 RMK A01 T01880158  RH  087%=      5-min Rain = 0
KASU 250805Z 27003KT 19/16 A2993 RMK A01 T01870158  RH  087%=      5-min Rain = 0
KASU 250810Z 27002KT 19/16 A2993 RMK A01 T01870158  RH  087%=      5-min Rain = 0
KASU 250815Z 27003KT 19/16 A2993 RMK A01 T01860158  RH  088%=      5-min Rain = 0
KASU 250820Z 29004KT 19/16 A2993 RMK A01 T01860158  RH  088%=      5-min Rain = 0
KASU 250825Z 29003KT 19/16 A2992 RMK A01 T01860159  RH  088%=      5-min Rain = 0
KASU 250830Z 27003KT 19/16 A2992 RMK A01 T01860159  RH  088%=      5-min Rain = 0
KASU 250835Z 24004KT 19/16 A2992 RMK A01 T01870160  RH  088%=      5-min Rain = 0
KASU 250840Z 21005KT 19/16 A2991 RMK A01 T01880160  RH  088%=      5-min Rain = 0
KASU 250845Z 20005KT 19/16 A2991 RMK A01 T01900159  RH  086%=      5-min Rain = 0
KASU 250850Z 20005KT 19/16 A2991 RMK A01 T01920155  RH  083%=      5-min Rain = 0
KASU 250855Z 20005KT 19/16 A2991 RMK A01 T01940155  RH  081%=      5-min Rain = 0
KASU 250900Z 21004KT 20/15 A299 RMK A01 T01960154  RH  080%=      5-min Rain = 0
KASU 250905Z 21003KT 20/15 A2991 RMK A01 T01960153  RH  080%=      5-min Rain = 0
KASU 250910Z 23002KT 20/15 A2991 RMK A01 T01950152  RH  080%=      5-min Rain = 0
KASU 250915Z 20001KT 19/15 A2991 RMK A01 T01930151  RH  080%=      5-min Rain = 0
KASU 250920Z 30001KT 19/15 A2991 RMK A01 T01910150  RH  080%=      5-min Rain = 0
KASU 250925Z 31003KT 19/15 A2991 RMK A01 T01870149  RH  082%=      5-min Rain = 0
KASU 250930Z 28003KT 19/15 A2991 RMK A01 T01850150  RH  083%=      5-min Rain = 0
KASU 250935Z 25003KT 18/15 A2991 RMK A01 T01840150  RH  084%=      5-min Rain = 0
KASU 250940Z 26003KT 19/15 A2991 RMK A01 T01850151  RH  085%=      5-min Rain = 0
KASU 250945Z 28003KT 19/15 A2991 RMK A01 T01850150  RH  084%=      5-min Rain = 0
KASU 250950Z 28002KT 18/15 A2991 RMK A01 T01840149  RH  084%=      5-min Rain = 0
KASU 250955Z 28003KT 18/15 A2991 RMK A01 T01820148  RH  084%=      5-min Rain = 0
KASU 251000Z 26004KT 18/15 A2991 RMK A01 T01820148  RH  085%=      5-min Rain = 0
KASU 251005Z 28003KT 18/15 A2991 RMK A01 T01820149  RH  084%=      5-min Rain = 0
KASU 251010Z 28003KT 18/15 A2991 RMK A01 T01840148  RH  083%=      5-min Rain = 0
KASU 251015Z 27004KT 18/15 A2991 RMK A01 T01840147  RH  082%=      5-min Rain = 0
KASU 251020Z 28005KT 19/15 A2992 RMK A01 T01860146  RH  081%=      5-min Rain = 0
KASU 251025Z 27005KT 19/14 A2992 RMK A01 T01850144  RH  080%=      5-min Rain = 0
KASU 251030Z 27005KT 19/14 A2992 RMK A01 T01850142  RH  080%=      5-min Rain = 0
KASU 251035Z 28005KT 19/14 A2992 RMK A01 T01850142  RH  079%=      5-min Rain = 0
KASU 251040Z 28004KT 19/14 A2992 RMK A01 T01850141  RH  079%=      5-min Rain = 0
KASU 251045Z 28004KT 19/14 A2992 RMK A01 T01850141  RH  079%=      5-min Rain = 0
KASU 251050Z 29003KT 19/14 A2992 RMK A01 T01850141  RH  079%=      5-min Rain = 0
KASU 251055Z 29004KT 18/14 A2993 RMK A01 T01820141  RH  080%=      5-min Rain = 0
KASU 251100Z 30004KT 18/14 A2993 RMK A01 T01810142  RH  081%=      5-min Rain = 0
KASU 251105Z 29005KT 18/14 A2993 RMK A01 T01810142  RH  082%=      5-min Rain = 0
KASU 251110Z 27005KT 18/14 A2993 RMK A01 T01840144  RH  081%=      5-min Rain = 0
KASU 251115Z 27005KT 19/14 A2993 RMK A01 T01870143  RH  079%=      5-min Rain = 0
KASU 251120Z 27005KT 19/14 A2993 RMK A01 T01910142  RH  077%=      5-min Rain = 0
KASU 251125Z 28005KT 19/14 A2994 RMK A01 T01900141  RH  076%=      5-min Rain = 0
KASU 251130Z 28005KT 19/14 A2994 RMK A01 T01900141  RH  077%=      5-min Rain = 0
KASU 251135Z 28005KT 19/14 A2994 RMK A01 T01890142  RH  077%=      5-min Rain = 0
KASU 251140Z 28005KT 19/14 A2994 RMK A01 T01890142  RH  077%=      5-min Rain = 0
KASU 251145Z 27004KT 19/14 A2994 RMK A01 T01890141  RH  077%=      5-min Rain = 0
KASU 251150Z 28006KT 19/14 A2994 RMK A01 T01880142  RH  078%=      5-min Rain = 0
KASU 251155Z 28007KT 19/14 A2994 RMK A01 T01890142  RH  078%=      5-min Rain = 0
KASU 251200Z 28007KT 19/14 A2994 RMK A01 T01900143  RH  077%=      5-min Rain = 0
KASU 251205Z 28007KT 19/14 A2994 RMK A01 T01910144  RH  077%=      5-min Rain = 0
KASU 251210Z 29007KT 19/14 A2994 RMK A01 T01910144  RH  078%=      5-min Rain = 0
KASU 251215Z 29007KT 19/15 A2994 RMK A01 T01910145  RH  078%=      5-min Rain = 0
KASU 251220Z 30007KT 19/15 A2994 RMK A01 T01930146  RH  078%=      5-min Rain = 0
KASU 251225Z 30007KT 19/15 A2994 RMK A01 T01940145  RH  077%=      5-min Rain = 0
KASU 251230Z 31006KT 20/15 A2995 RMK A01 T01950146  RH  077%=      5-min Rain = 0
KASU 251235Z 31007KT 19/15 A2995 RMK A01 T01940147  RH  077%=      5-min Rain = 0
KASU 251240Z 32007KT 20/15 A2995 RMK A01 T01950149  RH  078%=      5-min Rain = 0
KASU 251245Z 31007KT 20/15 A2995 RMK A01 T01950150  RH  079%=      5-min Rain = 0
KASU 251250Z 31006KT 20/15 A2995 RMK A01 T01970150  RH  078%=      5-min Rain = 0
KASU 251255Z 31007KT 20/15 A2995 RMK A01 T01990151  RH  077%=      5-min Rain = 0
KASU 251300Z 30007KT 20/15 A2995 RMK A01 T02010151  RH  076%=      5-min Rain = 0
KASU 251305Z 29007KT 20/15 A2995 RMK A01 T02040151  RH  075%=      5-min Rain = 0
KASU 251310Z 29007KT 21/15 A2995 RMK A01 T02060150  RH  074%=      5-min Rain = 0
KASU 251315Z 29007KT 21/15 A2995 RMK A01 T02070149  RH  072%=      5-min Rain = 0
KASU 251320Z 30006KT 21/15 A2995 RMK A01 T02100150  RH  072%=      5-min Rain = 0
KASU 251325Z 30006KT 21/15 A2996 RMK A01 T02130150  RH  071%=      5-min Rain = 0
KASU 251330Z 29005KT 22/15 A2996 RMK A01 T02160152  RH  070%=      5-min Rain = 0
KASU 251335Z 30004KT 22/15 A2996 RMK A01 T02180151  RH  069%=      5-min Rain = 0
KASU 251340Z 28003KT 22/15 A2997 RMK A01 T02210152  RH  068%=      5-min Rain = 0
KASU 251345Z 23001KT 22/15 A2997 RMK A01 T02230150  RH  066%=      5-min Rain = 0
KASU 251350Z 15001KT 23/15 A2998 RMK A01 T02280150  RH  064%=      5-min Rain = 0
KASU 251355Z 11003KT 23/15 A2998 RMK A01 T02300152  RH  064%=      5-min Rain = 0
KASU 251400Z 12003KT 23/16 A2998 RMK A01 T02280155  RH  066%=      5-min Rain = 0
KASU 251405Z 10004KT 23/16 A2999 RMK A01 T02290156  RH  066%=      5-min Rain = 0
KASU 251410Z 11005KT 23/16 A2999 RMK A01 T02290156  RH  066%=      5-min Rain = 0
KASU 251415Z 11006KT 23/16 A2999 RMK A01 T02280155  RH  066%=      5-min Rain = 0
KASU 251420Z 12007KT 23/16 A30 RMK A01 T02310158  RH  066%=      5-min Rain = 0
KASU 251425Z 13008KT 23/16 A3001 RMK A01 T02330156  RH  065%=      5-min Rain = 0
KASU 251430Z 12009KT 23/15 A3001 RMK A01 T02320154  RH  064%=      5-min Rain = 0
KASU 251435Z 13011KT 23/15 A3001 RMK A01 T02330154  RH  064%=      5-min Rain = 0
KASU 251440Z 12008KT 24/16 A3001 RMK A01 T02370157  RH  064%=      5-min Rain = 0
KASU 251445Z 13008KT 24/16 A3002 RMK A01 T02380156  RH  063%=      5-min Rain = 0
KASU 251450Z 13009KT 24/15 A3002 RMK A01 T02360152  RH  062%=      5-min Rain = 0
KASU 251455Z 13010KT 24/16 A3002 RMK A01 T02370156  RH  063%=      5-min Rain = 0
KASU 251500Z 11009KT 23/16 A3002 RMK A01 T02340159  RH  066%=      5-min Rain = 0
KASU 251505Z 12009KT 23/16 A3002 RMK A01 T02340160  RH  066%=      5-min Rain = 0
KASU 251510Z 12009KT 24/16 A3002 RMK A01 T02390160  RH  064%=      5-min Rain = 0
KASU 251515Z 12007KT 24/16 A3002 RMK A01 T02380155  RH  063%=      5-min Rain = 0
KASU 251520Z 11009KT 24/15 A3002 RMK A01 T02390154  RH  062%=      5-min Rain = 0
KASU 251525Z 13008KT 24/15 A3002 RMK A01 T02410154  RH  061%=      5-min Rain = 0
KASU 251530Z 12009G15KT 24/16 A3003 RMK A01 T02430155  RH  061%=      5-min Rain = 0
KASU 251535Z 12008KT 24/15 A3003 RMK A01 T02430153  RH  060%=      5-min Rain = 0
KASU 251540Z 12008KT 25/16 A3003 RMK A01 T02480155  RH  059%=      5-min Rain = 0
KASU 251545Z 12009KT 25/15 A3003 RMK A01 T02460152  RH  058%=      5-min Rain = 0
KASU 251550Z 13007KT 25/16 A3003 RMK A01 T02490157  RH  059%=      5-min Rain = 0
KASU 251555Z 12008KT 25/16 A3003 RMK A01 T02500155  RH  058%=      5-min Rain = 0
KASU 251600Z 12008KT 25/16 A3004 RMK A01 T02520157  RH  058%=      5-min Rain = 0
KASU 251605Z 12010KT 25/16 A3004 RMK A01 T02520156  RH  058%=      5-min Rain = 0
KASU 251610Z 12007G12KT 26/16 A3004 RMK A01 T02560159  RH  058%=      5-min Rain = 0
KASU 251615Z 10009G14KT 26/16 A3004 RMK A01 T02570161  RH  058%=      5-min Rain = 0
KASU 251620Z 11008KT 26/16 A3004 RMK A01 T02580163  RH  058%=      5-min Rain = 0
KASU 251625Z 10006KT 26/16 A3004 RMK A01 T02580163  RH  058%=      5-min Rain = 0
KASU 251630Z 14005KT 27/17 A3004 RMK A01 T02650167  RH  058%=      5-min Rain = 0
KASU 251635Z 14009KT 27/16 A3004 RMK A01 T02660160  RH  055%=      5-min Rain = 0
KASU 251640Z 15010G15KT 27/16 A3004 RMK A01 T02670157  RH  053%=      5-min Rain = 0
KASU 251645Z 14008G14KT 27/16 A3004 RMK A01 T02680158  RH  053%=      5-min Rain = 0
KASU 251650Z 14009KT 27/16 A3004 RMK A01 T02680158  RH  053%=      5-min Rain = 0
KASU 251655Z 13007KT 27/16 A3004 RMK A01 T02700159  RH  053%=      5-min Rain = 0
KASU 251700Z 13009KT 27/16 A3003 RMK A01 T02700158  RH  053%=      5-min Rain = 0
KASU 251705Z 12007KT 27/16 A3004 RMK A01 T02720161  RH  053%=      5-min Rain = 0
KASU 251710Z 15007G13KT 27/16 A3003 RMK A01 T02700158  RH  052%=      5-min Rain = 0
KASU 251715Z 12007KT 27/16 A3004 RMK A01 T02730163  RH  053%=      5-min Rain = 0
KASU 251720Z 13009KT 28/16 A3004 RMK A01 T02760164  RH  053%=      5-min Rain = 0
KASU 251725Z 13009KT 27/16 A3004 RMK A01 T02730161  RH  053%=      5-min Rain = 0
KASU 251730Z 12007KT 27/16 A3004 RMK A01 T02740162  RH  053%=      5-min Rain = 0
KASU 251735Z 14008KT 28/17 A3003 RMK A01 T02770167  RH  054%=      5-min Rain = 0
KASU 251740Z 14009KT 28/17 A3003 RMK A01 T02770165  RH  053%=      5-min Rain = 0
KASU 251745Z 14007G12KT 28/17 A3003 RMK A01 T02780167  RH  053%=      5-min Rain = 0
KASU 251750Z 14007KT 28/17 A3003 RMK A01 T02810169  RH  053%=      5-min Rain = 0
KASU 251755Z 12007KT 28/17 A3003 RMK A01 T02800166  RH  052%=      5-min Rain = 0
KASU 251800Z 13007G13KT 28/17 A3003 RMK A01 T02800168  RH  053%=      5-min Rain = 0
KASU 251805Z 15008KT 28/17 A3003 RMK A01 T02820170  RH  053%=      5-min Rain = 0
KASU 251810Z 13009KT 28/17 A3003 RMK A01 T02820169  RH  053%=      5-min Rain = 0
KASU 251815Z 14008KT 28/17 A3003 RMK A01 T02820171  RH  054%=      5-min Rain = 0
KASU 251820Z 12008KT 28/17 A3003 RMK A01 T02840170  RH  053%=      5-min Rain = 0
KASU 251825Z 13006KT 28/17 A3002 RMK A01 T02830171  RH  053%=      5-min Rain = 0
KASU 251830Z 15007G12KT 29/17 A3002 RMK A01 T02860173  RH  053%=      5-min Rain = 0
KASU 251835Z 15007KT 29/17 A3002 RMK A01 T02880174  RH  053%=      5-min Rain = 0
KASU 251840Z 13007G12KT 29/17 A3002 RMK A01 T02870173  RH  053%=      5-min Rain = 0
KASU 251845Z 14006KT 29/18 A3002 RMK A01 T02900177  RH  053%=      5-min Rain = 0
KASU 251850Z 13007G13KT 29/17 A3002 RMK A01 T02900174  RH  052%=      5-min Rain = 0
KASU 251855Z 14009KT 29/18 A3001 RMK A01 T02890176  RH  053%=      5-min Rain = 0
KASU 251900Z 15008KT 29/18 A3001 RMK A01 T02910175  RH  052%=      5-min Rain = 0
KASU 251905Z 15005KT 29/18 A3001 RMK A01 T02910175  RH  052%=      5-min Rain = 0
KASU 251910Z 14006G11KT 29/18 A3001 RMK A01 T02930175  RH  052%=      5-min Rain = 0
KASU 251915Z 16008KT 29/18 A3001 RMK A01 T02930177  RH  052%=      5-min Rain = 0
KASU 251920Z 14006G11KT 29/18 A30 RMK A01 T02930175  RH  052%=      5-min Rain = 0
KASU 251925Z 15007G12KT 30/18 A30 RMK A01 T02950179  RH  052%=      5-min Rain = 0
KASU 251930Z 16006KT 30/18 A30 RMK A01 T02970179  RH  052%=      5-min Rain = 0
KASU 251935Z 15008KT 30/18 A30 RMK A01 T02970178  RH  052%=      5-min Rain = 0
KASU 251940Z 14005KT 30/18 A30 RMK A01 T02980181  RH  052%=      5-min Rain = 0
KASU 251945Z 13006G11KT 30/18 A2999 RMK A01 T03010184  RH  052%=      5-min Rain = 0
KASU 251950Z 15007KT 30/18 A2999 RMK A01 T03010181  RH  051%=      5-min Rain = 0
KASU 251955Z 15007G12KT 30/19 A2999 RMK A01 T03030185  RH  052%=      5-min Rain = 0
KASU 252000Z 14008KT 30/18 A2999 RMK A01 T03020182  RH  051%=      5-min Rain = 0
KASU 252005Z 14007KT 30/19 A2999 RMK A01 T03040187  RH  053%=      5-min Rain = 0
KASU 252010Z 15007KT 30/18 A2999 RMK A01 T03040182  RH  051%=      5-min Rain = 0
KASU 252015Z 14008KT 30/18 A2999 RMK A01 T03030181  RH  051%=      5-min Rain = 0
KASU 252020Z 16006KT 31/19 A2998 RMK A01 T03060186  RH  052%=      5-min Rain = 0
KASU 252025Z 13008KT 31/19 A2998 RMK A01 T03100191  RH  052%=      5-min Rain = 0
KASU 252030Z 12006KT 31/19 A2998 RMK A01 T03080185  RH  051%=      5-min Rain = 0
KASU 252035Z 14008KT 31/18 A2998 RMK A01 T03080183  RH  050%=      5-min Rain = 0
KASU 252040Z 13008KT 31/18 A2998 RMK A01 T03070182  RH  050%=      5-min Rain = 0
KASU 252045Z 12010KT 31/18 A2998 RMK A01 T03070180  RH  049%=      5-min Rain = 0
KASU 252050Z 14007G13KT 31/18 A2997 RMK A01 T03090184  RH  050%=      5-min Rain = 0
KASU 252055Z 13009KT 31/18 A2997 RMK A01 T03100183  RH  049%=      5-min Rain = 0
KASU 252100Z 14010KT 31/18 A2997 RMK A01 T03110181  RH  048%=      5-min Rain = 0
KASU 252105Z 13008KT 31/18 A2997 RMK A01 T03100179  RH  048%=      5-min Rain = 0
KASU 252110Z 13009G16KT 31/19 A2997 RMK A01 T03120186  RH  050%=      5-min Rain = 0
KASU 252115Z 13008G13KT 31/19 A2997 RMK A01 T03130188  RH  050%=      5-min Rain = 0
KASU 252120Z 15010G15KT 31/19 A2997 RMK A01 T03130186  RH  049%=      5-min Rain = 0
KASU 252125Z 14009G14KT 31/19 A2997 RMK A01 T03140186  RH  049%=      5-min Rain = 0
KASU 252130Z 12010KT 31/19 A2996 RMK A01 T03130186  RH  049%=      5-min Rain = 0
KASU 252135Z 12009KT 31/19 A2996 RMK A01 T03130186  RH  050%=      5-min Rain = 0
KASU 252140Z 12010G16KT 31/19 A2996 RMK A01 T03110187  RH  050%=      5-min Rain = 0
KASU 252145Z 11008KT 31/19 A2996 RMK A01 T03120190  RH  051%=      5-min Rain = 0
KASU 252150Z 13012KT 31/18 A2996 RMK A01 T03070181  RH  050%=      5-min Rain = 0
KASU 252155Z 14009KT 31/18 A2996 RMK A01 T03130183  RH  049%=      5-min Rain = 0
KASU 252200Z 13009G14KT 32/18 A2996 RMK A01 T03150181  RH  047%=      5-min Rain = 0
KASU 252205Z 12008G13KT 32/18 A2996 RMK A01 T03150184  RH  048%=      5-min Rain = 0
KASU 252210Z 12008KT 32/18 A2995 RMK A01 T03150184  RH  048%=      5-min Rain = 0
KASU 252215Z 12009G14KT 31/18 A2995 RMK A01 T03140179  RH  047%=      5-min Rain = 0
KASU 252220Z 12008G13KT 32/18 A2995 RMK A01 T03150184  RH  048%=      5-min Rain = 0
KASU 252225Z 13009KT 32/18 A2995 RMK A01 T03150181  RH  047%=      5-min Rain = 0
KASU 252230Z 14010KT 32/18 A2995 RMK A01 T03150177  RH  046%=      5-min Rain = 0
KASU 252235Z 13008KT 32/18 A2995 RMK A01 T03160179  RH  047%=      5-min Rain = 0
KASU 252240Z 13009KT 32/18 A2995 RMK A01 T03170181  RH  047%=      5-min Rain = 0
KASU 252245Z 12009KT 31/18 A2995 RMK A01 T03140177  RH  046%=      5-min Rain = 0
KASU 252250Z 13010KT 31/18 A2995 RMK A01 T03140177  RH  047%=      5-min Rain = 0
KASU 252255Z 14009KT 32/18 A2995 RMK A01 T03150177  RH  046%=      5-min Rain = 0
KASU 252300Z 14008KT 32/18 A2995 RMK A01 T03160179  RH  046%=      5-min Rain = 0
KASU 252305Z 14008KT 32/18 A2995 RMK A01 T03160179  RH  046%=      5-min Rain = 0
KASU 252310Z 11009G14KT 31/18 A2994 RMK A01 T03140175  RH  046%=      5-min Rain = 0
KASU 252315Z 12009KT 31/17 A2994 RMK A01 T03120173  RH  045%=      5-min Rain = 0
KASU 252320Z 12009G15KT 31/17 A2994 RMK A01 T03120170  RH  045%=      5-min Rain = 0
KASU 252325Z 12008KT 31/17 A2994 RMK A01 T03120174  RH  046%=      5-min Rain = 0
KASU 252330Z 12010G16KT 31/17 A2994 RMK A01 T03110169  RH  045%=      5-min Rain = 0
KASU 252335Z 13008KT 31/17 A2994 RMK A01 T03120174  RH  046%=      5-min Rain = 0
KASU 252340Z 13008G13KT 31/18 A2994 RMK A01 T03120175  RH  046%=      5-min Rain = 0
KASU 252345Z 13010KT 31/17 A2994 RMK A01 T03110168  RH  044%=      5-min Rain = 0
KASU 252350Z 13011G16KT 31/17 A2994 RMK A01 T03090165  RH  044%=      5-min Rain = 0
KASU 252355Z 12011KT 31/16 A2994 RMK A01 T03080162  RH  043%=      5-min Rain = 0
KASU 260000Z 13009KT 31/16 A2994 RMK A01 T03080164  RH  044%=      5-min Rain = 0
KASU 260005Z 12008G14KT 31/17 A2994 RMK A01 T03080168  RH  045%=      5-min Rain = 0
KASU 260010Z 13009KT 31/16 A2994 RMK A01 T03060164  RH  044%=      5-min Rain = 0
KASU 260015Z 13010G15KT 31/16 A2994 RMK A01 T03050161  RH  044%=      5-min Rain = 0
KASU 260020Z 13010KT 30/16 A2994 RMK A01 T03040160  RH  044%=      5-min Rain = 0
KASU 260025Z 13009KT 30/16 A2994 RMK A01 T03030162  RH  045%=      5-min Rain = 0
KASU 260030Z 13009KT 30/16 A2994 RMK A01 T03010163  RH  045%=      5-min Rain = 0
KASU 260035Z 13008KT 30/16 A2994 RMK A01 T03020164  RH  046%=      5-min Rain = 0
KASU 260040Z 14008KT 30/17 A2994 RMK A01 T03010166  RH  046%=      5-min Rain = 0
KASU 260045Z 14008KT 30/17 A2994 RMK A01 T03000167  RH  047%=      5-min Rain = 0
KASU 260050Z 15008KT 30/17 A2994 RMK A01 T02990165  RH  047%=      5-min Rain = 0
KASU 260055Z 14008KT 30/17 A2994 RMK A01 T02970165  RH  047%=      5-min Rain = 0
KASU 260100Z 14006KT 30/17 A2994 RMK A01 T02960166  RH  048%=      5-min Rain = 0
KASU 260105Z 14007G12KT 30/16 A2995 RMK A01 T02950163  RH  047%=      5-min Rain = 0
KASU 260110Z 14008KT 29/16 A2995 RMK A01 T02920162  RH  048%=      5-min Rain = 0
KASU 260115Z 14007KT 29/16 A2995 RMK A01 T02900160  RH  048%=      5-min Rain = 0
KASU 260120Z 14007KT 29/16 A2995 RMK A01 T02870160  RH  048%=      5-min Rain = 0
KASU 260125Z 14006KT 28/16 A2995 RMK A01 T02840162  RH  050%=      5-min Rain = 0
KASU 260130Z 14005KT 28/17 A2995 RMK A01 T02800166  RH  052%=      5-min Rain = 0
KASU 260135Z 13005KT 28/17 A2996 RMK A01 T02750166  RH  054%=      5-min Rain = 0
KASU 260140Z 13005KT 27/17 A2996 RMK A01 T02710167  RH  056%=      5-min Rain = 0
KASU 260145Z 12006KT 27/17 A2996 RMK A01 T02660168  RH  058%=      5-min Rain = 0
KASU 260150Z 12006KT 26/17 A2996 RMK A01 T02640165  RH  057%=      5-min Rain = 0
KASU 260155Z 12005KT 26/16 A2996 RMK A01 T02640164  RH  057%=      5-min Rain = 0
KASU 260200Z 11004KT 26/17 A2996 RMK A01 T02580171  RH  062%=      5-min Rain = 0
KASU 260205Z 11005KT 25/17 A2997 RMK A01 T02530174  RH  065%=      5-min Rain = 0
KASU 260210Z 10005KT 25/18 A2997 RMK A01 T02500178  RH  068%=      5-min Rain = 0
KASU 260215Z 12006KT 25/18 A2997 RMK A01 T02490177  RH  067%=      5-min Rain = 0
KASU 260220Z 13008KT 26/17 A2997 RMK A01 T02610166  RH  059%=      5-min Rain = 0
KASU 260225Z 12007KT 27/16 A2997 RMK A01 T02650164  RH  056%=      5-min Rain = 0
KASU 260230Z 12006KT 26/17 A2998 RMK A01 T02620165  RH  058%=      5-min Rain = 0
KASU 260235Z 12006KT 26/17 A2998 RMK A01 T02600166  RH  059%=      5-min Rain = 0
KASU 260240Z 13007KT 26/17 A2998 RMK A01 T02600167  RH  059%=      5-min Rain = 0
KASU 260245Z 13007KT 26/17 A2998 RMK A01 T02600168  RH  059%=      5-min Rain = 0
KASU 260250Z 13007KT 26/17 A2998 RMK A01 T02610168  RH  060%=      5-min Rain = 0
KASU 260255Z 13007KT 26/17 A2999 RMK A01 T02600169  RH  060%=      5-min Rain = 0
KASU 260300Z 13006KT 26/17 A2999 RMK A01 T02590170  RH  061%=      5-min Rain = 0
KASU 260305Z 13006KT 26/17 A2999 RMK A01 T02580170  RH  061%=      5-min Rain = 0
KASU 260310Z 13006KT 26/17 A2999 RMK A01 T02570170  RH  062%=      5-min Rain = 0
KASU 260315Z 13006KT 25/17 A30 RMK A01 T02540171  RH  063%=      5-min Rain = 0
KASU 260320Z 14006KT 25/17 A30 RMK A01 T02530171  RH  064%=      5-min Rain = 0
KASU 260325Z 14006KT 25/17 A3001 RMK A01 T02510172  RH  065%=      5-min Rain = 0
KASU 260330Z 14005KT 25/17 A3001 RMK A01 T02490174  RH  066%=      5-min Rain = 0
KASU 260335Z 14005KT 25/18 A3002 RMK A01 T02470175  RH  068%=      5-min Rain = 0
KASU 260340Z 14006KT 25/18 A3002 RMK A01 T02460175  RH  068%=      5-min Rain = 0
KASU 260345Z 13005KT 24/18 A3003 RMK A01 T02440175  RH  069%=      5-min Rain = 0
KASU 260350Z 13005KT 24/18 A3003 RMK A01 T02430176  RH  070%=      5-min Rain = 0
KASU 260355Z 13005KT 24/18 A3004 RMK A01 T02420176  RH  070%=      5-min Rain = 0
KASU 260400Z 14005KT 24/18 A3004 RMK A01 T02420176  RH  070%=      5-min Rain = 0
KASU 260405Z 14005KT 24/18 A3004 RMK A01 T02400176  RH  071%=      5-min Rain = 0
KASU 260410Z 14004KT 24/18 A3004 RMK A01 T02380177  RH  072%=      5-min Rain = 0
KASU 260415Z 14005KT 24/18 A3004 RMK A01 T02360177  RH  074%=      5-min Rain = 0
KASU 260420Z 14004KT 24/18 A3005 RMK A01 T02350177  RH  074%=      5-min Rain = 0
KASU 260425Z 14004KT 23/18 A3005 RMK A01 T02340178  RH  074%=      5-min Rain = 0
KASU 260430Z 15004KT 24/18 A3005 RMK A01 T02350178  RH  074%=      5-min Rain = 0
KASU 260435Z 14005KT 23/18 A3005 RMK A01 T02330178  RH  075%=      5-min Rain = 0
KASU 260440Z 14005KT 23/18 A3005 RMK A01 T02320178  RH  076%=      5-min Rain = 0
KASU 260445Z 14005KT 23/18 A3005 RMK A01 T02320177  RH  075%=      5-min Rain = 0
KASU 260450Z 13005KT 23/18 A3005 RMK A01 T02310176  RH  075%=      5-min Rain = 0
KASU 260455Z 13006KT 23/18 A3005 RMK A01 T02300176  RH  075%=      5-min Rain = 0

Page generated in 0.0091 seconds.